Terminal Aerodrome Forecast
Issued by NWS

Home | Current Version | Previous Version | Graphics & Text | Print | Product List | Glossary On
Versions: 1 2 3 4 5 6 7 8 9 10 11 12 13
000
FTUS43 KICT 181736 AAA
TAFRSL
TAF AMD
KRSL 181736Z 1818/1918 33029G44KT P6SM SCT050
     FM182100 33023G33KT P6SM SKC
     FM190200 35010KT P6SM SKC
     FM190700 VRB06KT P6SM SKC=

USA.gov is the U.S. government's official web portal to all federal, state and local government web resources and services.